createdAt,value
2018-01-26T00:00:46.187Z,57.20
2018-01-26T00:03:14.120Z,58.90
2018-01-26T00:05:42.001Z,55.17
2018-01-26T00:08:09.838Z,50.43
2018-01-26T00:10:37.711Z,56.43
2018-01-26T00:13:05.616Z,58.77
2018-01-26T00:15:33.508Z,54.40
2018-01-26T00:18:01.367Z,62.33
2018-01-26T00:20:29.237Z,65.37
2018-01-26T00:22:57.083Z,69.13
2018-01-26T00:25:24.921Z,58.67
2018-01-26T00:27:52.782Z,62.53
2018-01-26T00:30:20.631Z,60.13
2018-01-26T00:32:48.479Z,61.20
2018-01-26T00:35:16.338Z,64.23
2018-01-26T00:37:44.171Z,63.30
2018-01-26T00:40:12.011Z,64.70
2018-01-26T00:42:39.879Z,59.07
2018-01-26T00:45:07.753Z,67.53
2018-01-26T00:47:35.591Z,62.80
2018-01-26T00:50:03.454Z,70.63
2018-01-26T00:52:31.295Z,62.30
2018-01-26T00:54:59.163Z,64.83
2018-01-26T00:57:27.039Z,64.90
2018-01-26T00:59:54.940Z,68.27
2018-01-26T01:02:22.798Z,67.00
2018-01-26T01:04:50.692Z,69.63
2018-01-26T01:07:18.516Z,71.03
2018-01-26T01:09:46.335Z,76.93
2018-01-26T01:12:14.198Z,70.70
2018-01-26T01:14:42.048Z,74.67
2018-01-26T01:17:09.915Z,74.33
2018-01-26T01:19:37.783Z,63.97
2018-01-26T01:22:05.619Z,67.33
2018-01-26T01:24:33.464Z,72.70
2018-01-26T01:27:01.325Z,76.83
2018-01-26T01:29:29.176Z,72.13
2018-01-26T01:31:57.053Z,73.33
2018-01-26T01:34:24.914Z,71.60
2018-01-26T01:36:52.760Z,72.60
2018-01-26T01:39:20.599Z,68.67
2018-01-26T01:41:48.473Z,75.20
2018-01-26T01:44:16.351Z,74.90
2018-01-26T01:46:44.181Z,75.80
2018-01-26T01:49:15.003Z,72.07
2018-01-26T01:51:42.852Z,65.07
2018-01-26T01:54:10.688Z,82.53
2018-01-26T01:56:38.558Z,75.73
2018-01-26T01:59:06.436Z,72.47
2018-01-26T02:01:35.207Z,74.90
2018-01-26T02:04:03.090Z,81.57
2018-01-26T02:06:30.926Z,73.03
2018-01-26T02:08:58.769Z,84.50
2018-01-26T02:11:26.646Z,72.83
2018-01-26T02:13:54.481Z,77.07
2018-01-26T02:16:22.313Z,74.10
2018-01-26T02:18:50.177Z,73.50
2018-01-26T02:21:18.011Z,85.60
2018-01-26T02:23:58.068Z,75.70
2018-01-26T02:26:26.071Z,69.27
2018-01-26T02:28:54.055Z,65.80
2018-01-26T02:31:22.056Z,62.83
2018-01-26T02:33:50.037Z,57.20
2018-01-26T02:36:18.035Z,67.33
2018-01-26T02:38:45.927Z,58.07
2018-01-26T02:41:13.762Z,64.00
2018-01-26T02:43:41.647Z,71.47
2018-01-26T02:46:09.512Z,66.73
2018-01-26T02:48:37.348Z,51.80
2018-01-26T02:51:05.215Z,55.30
2018-01-26T02:53:33.078Z,57.27
2018-01-26T02:56:00.907Z,56.33
2018-01-26T02:58:28.745Z,59.90
2018-01-26T03:00:56.600Z,36.53
2018-01-26T03:03:25.269Z,40.10
2018-01-26T03:05:53.108Z,51.90
2018-01-26T03:08:20.972Z,55.90
2018-01-26T03:10:48.807Z,57.50
2018-01-26T03:13:16.636Z,62.40
2018-01-26T03:15:44.504Z,66.07
2018-01-26T03:18:12.327Z,81.40
2018-01-26T03:20:40.154Z,86.00
2018-01-26T03:23:08.047Z,89.03
2018-01-26T03:25:35.879Z,86.03
2018-01-26T03:28:03.741Z,96.03
2018-01-26T03:30:31.609Z,96.97
2018-01-26T03:32:59.463Z,92.07
2018-01-26T03:35:27.332Z,100.10
2018-01-26T03:37:55.197Z,96.63
2018-01-26T03:40:23.040Z,102.13
2018-01-26T03:42:50.871Z,109.73
2018-01-26T03:45:18.729Z,106.37
2018-01-26T03:47:46.564Z,93.03
2018-01-26T03:50:14.404Z,92.03
2018-01-26T03:52:42.265Z,87.90
2018-01-26T03:55:10.103Z,87.60
2018-01-26T03:57:37.935Z,81.63
2018-01-26T04:00:05.811Z,78.50
2018-01-26T04:02:34.147Z,76.53
2018-01-26T04:05:02.007Z,81.93
2018-01-26T04:07:29.872Z,86.47
2018-01-26T04:09:57.742Z,79.10
2018-01-26T04:12:25.580Z,88.50
2018-01-26T04:14:53.427Z,86.80
2018-01-26T04:17:21.259Z,87.30
2018-01-26T04:19:49.090Z,89.43
2018-01-26T04:22:16.956Z,72.73
2018-01-26T04:24:44.783Z,60.77
2018-01-26T04:27:12.624Z,76.97
2018-01-26T04:29:40.515Z,72.80
2018-01-26T04:32:08.347Z,70.93
2018-01-26T04:34:36.187Z,68.90
2018-01-26T04:37:04.057Z,68.80
2018-01-26T04:39:31.894Z,59.50
2018-01-26T04:41:59.767Z,66.83
2018-01-26T04:44:27.635Z,63.00
2018-01-26T04:46:55.473Z,67.00
2018-01-26T04:49:23.301Z,64.40
2018-01-26T04:51:51.181Z,68.80
2018-01-26T04:54:19.007Z,63.77
2018-01-26T04:56:46.835Z,69.53
2018-01-26T04:59:14.691Z,66.83
2018-01-26T05:01:42.530Z,72.37
2018-01-26T05:04:10.371Z,75.13
2018-01-26T05:06:38.272Z,75.97
2018-01-26T05:09:06.115Z,75.30
2018-01-26T05:11:33.968Z,82.07
2018-01-26T05:14:01.841Z,82.13
2018-01-26T05:16:29.701Z,86.97
2018-01-26T05:18:57.544Z,86.17
2018-01-26T05:21:25.428Z,76.10
2018-01-26T05:23:53.287Z,84.40
2018-01-26T05:26:21.124Z,77.60
2018-01-26T05:28:48.987Z,85.77
2018-01-26T05:31:16.828Z,83.07
2018-01-26T05:33:44.661Z,89.67
2018-01-26T05:36:12.545Z,88.53
2018-01-26T05:38:40.403Z,84.03
2018-01-26T05:41:08.240Z,86.40
2018-01-26T05:43:36.140Z,86.07
2018-01-26T05:46:03.984Z,88.70
2018-01-26T05:48:31.825Z,88.03
2018-01-26T05:51:00.513Z,86.70
2018-01-26T05:53:28.345Z,83.37
2018-01-26T05:55:56.188Z,93.63
2018-01-26T05:58:24.055Z,90.33
2018-01-26T06:00:51.895Z,95.57
2018-01-26T06:03:19.732Z,108.57
2018-01-26T06:05:47.591Z,98.30
2018-01-26T06:08:15.463Z,102.23
2018-01-26T06:10:43.312Z,95.90
2018-01-26T06:13:11.205Z,97.37
2018-01-26T06:15:39.080Z,107.50
2018-01-26T06:18:06.964Z,103.93
2018-01-26T06:20:34.827Z,100.77
2018-01-26T06:23:02.675Z,100.80
2018-01-26T06:25:30.547Z,95.67
2018-01-26T06:27:58.431Z,99.40
2018-01-26T06:30:26.315Z,89.93
2018-01-26T06:32:54.214Z,95.93
2018-01-26T06:35:22.094Z,95.90
2018-01-26T06:37:49.935Z,104.57
2018-01-26T06:40:17.792Z,107.10
2018-01-26T06:42:45.667Z,96.50
2018-01-26T06:45:13.523Z,110.10
2018-01-26T06:47:41.384Z,106.13
2018-01-26T06:50:09.260Z,110.00
2018-01-26T06:52:37.111Z,105.87
2018-01-26T06:55:04.956Z,103.27
2018-01-26T06:57:32.896Z,110.50
2018-01-26T07:00:00.716Z,109.40
2018-01-26T07:02:28.545Z,109.83
2018-01-26T07:04:56.415Z,102.40
2018-01-26T07:07:24.266Z,106.13
2018-01-26T07:09:52.143Z,101.70
2018-01-26T07:12:20.024Z,105.13
2018-01-26T07:14:47.909Z,106.33
2018-01-26T07:17:16.562Z,97.23
2018-01-26T07:19:44.457Z,99.53
2018-01-26T07:22:12.291Z,104.60
2018-01-26T07:24:40.177Z,101.47
2018-01-26T07:27:08.887Z,101.73
2018-01-26T07:29:36.753Z,109.63
2018-01-26T07:32:04.637Z,111.60
2018-01-26T07:34:32.547Z,118.03
2018-01-26T07:37:00.383Z,123.33
2018-01-26T07:39:28.236Z,119.80
2018-01-26T07:41:56.118Z,124.70
2018-01-26T07:44:24.111Z,114.33
2018-01-26T07:46:51.972Z,122.37
2018-01-26T07:49:19.851Z,122.83
2018-01-26T07:51:47.707Z,120.33
2018-01-26T07:54:16.099Z,113.93
2018-01-26T07:56:43.970Z,118.57
2018-01-26T07:59:11.815Z,110.87
2018-01-26T08:01:39.664Z,127.60
2018-01-26T08:04:07.531Z,127.80
2018-01-26T08:06:35.407Z,152.57
2018-01-26T08:09:03.583Z,126.97
2018-01-26T08:11:31.526Z,140.70
2018-01-26T08:13:59.373Z,144.23
2018-01-26T08:16:27.220Z,125.90
2018-01-26T08:18:55.091Z,133.60
2018-01-26T08:21:22.953Z,126.17
2018-01-26T08:23:51.024Z,121.03
2018-01-26T08:26:18.976Z,121.07
2018-01-26T08:28:47.839Z,135.20
2018-01-26T08:31:15.893Z,125.03
2018-01-26T08:33:43.787Z,122.90
2018-01-26T08:36:11.692Z,128.50
2018-01-26T08:38:39.551Z,112.77
2018-01-26T08:41:07.460Z,109.03
2018-01-26T08:43:35.314Z,125.80
2018-01-26T08:46:03.336Z,112.70
2018-01-26T08:48:31.247Z,118.83
2018-01-26T08:50:59.128Z,115.80
2018-01-26T08:53:27.004Z,115.13
2018-01-26T08:55:55.534Z,118.20
2018-01-26T08:58:23.550Z,113.30
2018-01-26T09:00:51.483Z,110.00
2018-01-26T09:03:19.427Z,105.40
2018-01-26T09:05:47.317Z,112.70
2018-01-26T09:08:15.282Z,107.43
2018-01-26T09:10:43.131Z,118.30
2018-01-26T09:13:11.080Z,101.57
2018-01-26T09:15:38.943Z,103.90
2018-01-26T09:18:06.802Z,101.77
2018-01-26T09:20:34.722Z,103.30
2018-01-26T09:23:02.609Z,109.73
2018-01-26T09:25:30.501Z,105.03
2018-01-26T09:27:58.372Z,110.07
2018-01-26T09:30:26.260Z,113.67
2018-01-26T09:32:54.136Z,102.73
2018-01-26T09:35:22.031Z,103.80
2018-01-26T09:37:50.047Z,113.00
2018-01-26T09:40:17.919Z,100.73
2018-01-26T09:42:45.811Z,104.87
2018-01-26T09:45:13.660Z,114.17
2018-01-26T09:47:41.580Z,124.40
2018-01-26T09:50:10.258Z,112.73
2018-01-26T09:52:39.909Z,114.07
2018-01-26T09:55:09.245Z,114.20
2018-01-26T09:57:37.163Z,111.73
2018-01-26T10:00:07.074Z,126.90
2018-01-26T10:02:35.339Z,117.20
2018-01-26T10:05:04.191Z,134.87
2018-01-26T10:07:33.120Z,116.43
2018-01-26T10:10:00.971Z,128.33
2018-01-26T10:12:28.916Z,128.87
2018-01-26T10:14:57.129Z,131.13
2018-01-26T10:17:25.079Z,122.97
2018-01-26T10:19:52.951Z,129.37
2018-01-26T10:22:20.997Z,138.43
2018-01-26T10:24:49.051Z,155.77
2018-01-26T10:27:16.927Z,138.07
2018-01-26T10:29:45.355Z,147.73
2018-01-26T10:32:13.235Z,149.07
2018-01-26T10:34:41.146Z,144.17
2018-01-26T10:37:09.031Z,140.60
2018-01-26T10:39:36.950Z,164.53
2018-01-26T10:42:04.814Z,176.90
2018-01-26T10:44:32.697Z,159.27
2018-01-26T10:47:00.595Z,156.37
2018-01-26T10:49:28.468Z,154.80
2018-01-26T10:51:56.355Z,172.50
2018-01-26T10:54:24.217Z,170.00
2018-01-26T10:56:52.084Z,160.53
2018-01-26T10:59:19.950Z,168.60
2018-01-26T11:01:47.822Z,171.60
2018-01-26T11:04:15.728Z,163.97
2018-01-26T11:06:43.597Z,174.83
2018-01-26T11:09:11.500Z,198.70
2018-01-26T11:11:39.384Z,191.10
2018-01-26T11:14:07.258Z,191.80
2018-01-26T11:16:35.204Z,175.33
2018-01-26T11:19:03.068Z,180.83
2018-01-26T11:21:30.948Z,180.73
2018-01-26T11:23:58.851Z,185.17
2018-01-26T11:26:26.696Z,182.20
2018-01-26T11:28:54.549Z,181.40
2018-01-26T11:31:22.424Z,184.00
2018-01-26T11:33:50.252Z,169.33
2018-01-26T11:36:18.219Z,168.57
2018-01-26T11:38:46.138Z,177.80
2018-01-26T11:41:13.992Z,170.73
2018-01-26T11:43:41.848Z,157.80
2018-01-26T11:46:09.761Z,165.53
2018-01-26T11:48:37.595Z,148.70
2018-01-26T11:51:05.451Z,173.00
2018-01-26T11:53:33.324Z,160.13
2018-01-26T11:56:01.176Z,151.00
2018-01-26T11:58:29.040Z,157.83
2018-01-26T12:00:56.929Z,143.10
2018-01-26T12:03:24.797Z,148.70
2018-01-26T12:05:52.640Z,139.47
2018-01-26T12:08:20.522Z,128.03
2018-01-26T12:10:48.372Z,119.67
2018-01-26T12:13:16.203Z,113.90
2018-01-26T12:15:44.136Z,99.63
2018-01-26T12:18:12.035Z,76.60
2018-01-26T12:20:39.871Z,81.37
2018-01-26T12:23:07.767Z,72.73
2018-01-26T12:25:35.675Z,70.20
2018-01-26T12:28:03.542Z,69.53
2018-01-26T12:30:31.428Z,60.20
2018-01-26T12:32:59.258Z,68.93
2018-01-26T12:35:27.122Z,46.60
2018-01-26T12:37:54.984Z,50.57
2018-01-26T12:40:22.829Z,55.80
2018-01-26T12:42:50.669Z,65.50
2018-01-26T12:45:18.532Z,43.10
2018-01-26T12:47:46.364Z,51.97
2018-01-26T12:50:14.300Z,32.50
2018-01-26T12:52:42.198Z,42.87
2018-01-26T12:55:10.088Z,32.07
2018-01-26T12:57:37.969Z,28.77
2018-01-26T13:00:05.852Z,29.67
2018-01-26T13:02:33.713Z,25.80
2018-01-26T13:05:01.571Z,24.83
2018-01-26T13:07:29.457Z,29.30
2018-01-26T13:09:57.295Z,32.50
2018-01-26T13:12:25.160Z,20.13
2018-01-26T13:14:53.057Z,18.60
2018-01-26T13:17:20.932Z,22.90
2018-01-26T13:19:48.815Z,24.73
2018-01-26T13:22:16.684Z,26.30
2018-01-26T13:24:44.524Z,34.37
2018-01-26T13:27:12.864Z,20.67
2018-01-26T13:29:40.755Z,22.53
2018-01-26T13:32:08.613Z,19.70
2018-01-26T13:34:36.472Z,23.03
2018-01-26T13:37:04.369Z,15.50
2018-01-26T13:39:32.217Z,16.20
2018-01-26T13:42:00.097Z,17.70
2018-01-26T13:44:27.982Z,15.10
2018-01-26T13:46:55.908Z,14.23
2018-01-26T13:49:23.767Z,14.33
2018-01-26T13:51:51.667Z,18.40
2018-01-26T13:54:19.527Z,17.00
2018-01-26T13:56:47.355Z,25.47
2018-01-26T13:59:16.018Z,19.77
2018-01-26T14:01:43.880Z,17.17
2018-01-26T14:04:11.728Z,18.10
2018-01-26T14:06:39.600Z,28.73
2018-01-26T14:09:07.513Z,20.67
2018-01-26T14:11:35.374Z,18.27
2018-01-26T14:14:03.246Z,24.30
2018-01-26T14:16:31.161Z,19.20
2018-01-26T14:18:59.059Z,22.97
2018-01-26T14:21:27.007Z,15.50
2018-01-26T14:23:54.852Z,21.70
2018-01-26T14:26:22.728Z,16.13
2018-01-26T14:28:50.572Z,21.20
2018-01-26T14:31:18.449Z,17.80
2018-01-26T14:33:46.315Z,19.10
2018-01-26T14:36:14.147Z,14.53
2018-01-26T14:38:42.067Z,13.27
2018-01-26T14:41:09.903Z,14.00
2018-01-26T14:43:37.796Z,12.70
2018-01-26T14:46:05.702Z,22.00
2018-01-26T14:48:33.568Z,27.93
2018-01-26T14:51:01.437Z,16.57
2018-01-26T14:53:29.306Z,19.43
2018-01-26T14:55:57.177Z,25.77
2018-01-26T14:58:25.036Z,22.60
2018-01-26T15:00:52.904Z,20.80
2018-01-26T15:03:20.812Z,24.47
2018-01-26T15:05:48.682Z,37.33
2018-01-26T15:08:16.511Z,30.20
2018-01-26T15:10:44.375Z,40.30
2018-01-26T15:13:12.252Z,28.53
2018-01-26T15:15:40.216Z,26.60
2018-01-26T15:18:08.169Z,30.33
2018-01-26T15:20:35.999Z,19.43
2018-01-26T15:23:03.915Z,27.80
2018-01-26T15:25:31.794Z,25.83
2018-01-26T15:27:59.664Z,18.10
2018-01-26T15:30:27.546Z,20.07
2018-01-26T15:32:55.505Z,15.47
2018-01-26T15:35:23.350Z,22.33
2018-01-26T15:37:51.229Z,22.20
2018-01-26T15:40:19.113Z,19.43
2018-01-26T15:42:46.952Z,22.77
2018-01-26T15:45:14.867Z,27.20
2018-01-26T15:47:42.751Z,20.80
2018-01-26T15:50:10.620Z,19.63
2018-01-26T15:52:38.496Z,36.13
2018-01-26T15:55:06.352Z,29.07
2018-01-26T15:57:34.408Z,24.50
2018-01-26T16:00:02.279Z,26.50
2018-01-26T16:02:30.150Z,18.17
2018-01-26T16:04:58.041Z,21.40
2018-01-26T16:07:27.204Z,27.70
2018-01-26T16:09:55.122Z,27.13
2018-01-26T16:12:22.971Z,18.70
2018-01-26T16:14:50.832Z,23.80
2018-01-26T16:17:18.797Z,35.43
2018-01-26T16:19:46.626Z,43.53
2018-01-26T16:22:17.569Z,20.37
2018-01-26T16:24:45.619Z,19.57
2018-01-26T16:27:13.544Z,26.87
2018-01-26T16:29:41.492Z,27.63
2018-01-26T16:32:09.389Z,41.80
2018-01-26T16:34:37.315Z,18.80
2018-01-26T16:37:05.164Z,27.50
2018-01-26T16:39:33.036Z,24.13
2018-01-26T16:42:00.919Z,25.07
2018-01-26T16:44:28.888Z,29.10
2018-01-26T16:46:56.807Z,35.53
2018-01-26T16:49:24.661Z,34.40
2018-01-26T16:51:52.527Z,24.50
2018-01-26T16:54:20.414Z,25.57
2018-01-26T16:56:48.259Z,36.73
2018-01-26T16:59:16.095Z,41.90
2018-01-26T17:01:43.958Z,39.03
2018-01-26T17:04:11.788Z,32.07
2018-01-26T17:06:39.699Z,28.77
2018-01-26T17:09:07.582Z,31.73
2018-01-26T17:11:35.492Z,30.07
2018-01-26T17:14:03.464Z,29.60
2018-01-26T17:16:31.351Z,24.60
2018-01-26T17:18:59.232Z,24.03
2018-01-26T17:21:27.123Z,25.97
2018-01-26T17:23:54.992Z,26.97
2018-01-26T17:26:22.863Z,30.53
2018-01-26T17:28:50.747Z,30.33
2018-01-26T17:31:18.571Z,32.07
2018-01-26T17:33:46.400Z,23.87
2018-01-26T17:36:14.287Z,32.73
2018-01-26T17:38:42.712Z,36.53
2018-01-26T17:41:10.728Z,38.70
2018-01-26T17:43:38.572Z,42.83
2018-01-26T17:46:06.438Z,30.50
2018-01-26T17:48:34.317Z,34.13
2018-01-26T17:51:02.312Z,32.67
2018-01-26T17:53:30.215Z,42.33
2018-01-26T17:55:58.075Z,40.80
2018-01-26T17:58:26.089Z,35.43
2018-01-26T18:00:54.004Z,40.97
2018-01-26T18:03:21.887Z,37.93
2018-01-26T18:05:49.868Z,35.53
2018-01-26T18:08:17.771Z,32.63
2018-01-26T18:10:45.789Z,39.77
2018-01-26T18:13:13.664Z,35.40
2018-01-26T18:15:41.511Z,40.77
2018-01-26T18:18:09.427Z,31.50
2018-01-26T18:20:37.362Z,30.73
2018-01-26T18:23:05.243Z,30.17
2018-01-26T18:25:33.329Z,32.47
2018-01-26T18:28:01.227Z,37.00
2018-01-26T18:30:29.235Z,31.60
2018-01-26T18:32:57.059Z,30.07
2018-01-26T18:35:24.951Z,35.87
2018-01-26T18:37:52.877Z,33.53
2018-01-26T18:40:20.712Z,44.80
2018-01-26T18:42:48.711Z,40.30
2018-01-26T18:45:16.941Z,36.93
2018-01-26T18:47:44.770Z,37.87
2018-01-26T18:50:12.651Z,37.47
2018-01-26T18:52:40.502Z,39.17
2018-01-26T18:55:08.417Z,38.20
2018-01-26T18:57:36.321Z,41.93
2018-01-26T19:00:04.540Z,48.47
2018-01-26T19:02:32.552Z,41.17
2018-01-26T19:05:00.480Z,45.90
2018-01-26T19:07:28.411Z,42.43
2018-01-26T19:09:56.351Z,43.83
2018-01-26T19:12:24.243Z,43.70
2018-01-26T19:14:52.124Z,48.33
2018-01-26T19:17:19.984Z,47.23
2018-01-26T19:19:47.825Z,48.30
2018-01-26T19:22:17.035Z,41.47
2018-01-26T19:24:44.888Z,42.67
2018-01-26T19:27:12.756Z,48.00
2018-01-26T19:29:40.728Z,45.30
2018-01-26T19:32:08.802Z,44.07
2018-01-26T19:34:36.676Z,46.23
2018-01-26T19:37:04.533Z,50.93
2018-01-26T19:39:33.121Z,57.07
2018-01-26T19:42:01.103Z,136.27
2018-01-26T19:44:28.977Z,78.77
2018-01-26T19:46:56.812Z,74.03
2018-01-26T19:49:25.649Z,57.63
2018-01-26T19:51:53.545Z,76.90
2018-01-26T19:54:21.452Z,71.77
2018-01-26T19:56:49.398Z,80.77
2018-01-26T19:59:17.276Z,71.47
2018-01-26T20:01:45.169Z,59.80
2018-01-26T20:04:27.939Z,48.60
2018-01-26T20:07:07.964Z,66.30
2018-01-26T20:09:35.887Z,50.80
2018-01-26T20:12:09.995Z,52.97
2018-01-26T20:14:37.932Z,46.90
2018-01-26T20:17:05.767Z,47.13
2018-01-26T20:19:33.713Z,45.07
2018-01-26T20:22:01.629Z,45.53
2018-01-26T20:24:29.498Z,54.33
2018-01-26T20:26:57.385Z,53.33
2018-01-26T20:29:25.252Z,52.77
2018-01-26T20:31:53.131Z,57.53
2018-01-26T20:34:21.029Z,53.60
2018-01-26T20:36:48.871Z,56.80
2018-01-26T20:39:16.805Z,54.57
2018-01-26T20:41:44.661Z,60.70
2018-01-26T20:44:12.756Z,63.50
2018-01-26T20:46:40.648Z,56.90
2018-01-26T20:49:08.479Z,59.23
2018-01-26T20:51:36.342Z,54.30
2018-01-26T20:54:04.209Z,68.63
2018-01-26T20:56:32.115Z,58.13
2018-01-26T20:58:59.955Z,75.80
2018-01-26T21:01:27.877Z,51.53
2018-01-26T21:03:55.703Z,60.80
2018-01-26T21:06:23.544Z,62.20
2018-01-26T21:08:51.400Z,62.77
2018-01-26T21:11:19.262Z,69.23
2018-01-26T21:13:47.114Z,60.63
2018-01-26T21:16:14.977Z,59.80
2018-01-26T21:18:42.824Z,62.37
2018-01-26T21:21:10.660Z,72.63
2018-01-26T21:23:38.766Z,63.60
2018-01-26T21:26:06.699Z,53.93
2018-01-26T21:28:34.626Z,67.13
2018-01-26T21:31:02.700Z,63.70
2018-01-26T21:33:30.568Z,62.43
2018-01-26T21:35:58.412Z,62.87
2018-01-26T21:38:26.235Z,70.40
2018-01-26T21:40:54.113Z,59.70
2018-01-26T21:43:22.008Z,65.90
2018-01-26T21:45:49.867Z,59.50
2018-01-26T21:48:17.768Z,61.27
2018-01-26T21:50:45.632Z,64.37
2018-01-26T21:53:13.471Z,58.23
2018-01-26T21:55:41.323Z,68.03
2018-01-26T21:58:09.232Z,56.80
2018-01-26T22:00:37.076Z,59.23
2018-01-26T22:03:04.952Z,67.80
2018-01-26T22:05:32.784Z,58.03
2018-01-26T22:08:00.641Z,65.80
2018-01-26T22:10:28.521Z,70.17
2018-01-26T22:12:56.366Z,66.27
2018-01-26T22:15:24.782Z,66.57
2018-01-26T22:17:53.236Z,71.87
2018-01-26T22:20:21.470Z,71.63
2018-01-26T22:22:49.342Z,74.70
2018-01-26T22:25:17.244Z,71.57
2018-01-26T22:27:45.148Z,81.30
2018-01-26T22:30:13.012Z,76.53
2018-01-26T22:32:40.894Z,74.67
2018-01-26T22:35:08.728Z,65.50
2018-01-26T22:37:36.560Z,85.23
2018-01-26T22:40:04.460Z,73.70
2018-01-26T22:42:32.347Z,82.13
2018-01-26T22:45:00.207Z,76.10
2018-01-26T22:47:28.096Z,80.73
2018-01-26T22:49:55.921Z,86.63
2018-01-26T22:52:23.789Z,80.00
2018-01-26T22:54:51.656Z,84.83
2018-01-26T22:57:19.549Z,84.17
2018-01-26T22:59:47.383Z,81.70
2018-01-26T23:02:15.245Z,89.60
2018-01-26T23:04:43.076Z,84.20
2018-01-26T23:07:10.921Z,86.53
2018-01-26T23:09:38.799Z,88.97
2018-01-26T23:12:06.654Z,82.20
2018-01-26T23:14:34.492Z,89.13
2018-01-26T23:17:02.374Z,93.57
2018-01-26T23:19:30.199Z,89.27
2018-01-26T23:21:58.059Z,85.60
2018-01-26T23:24:25.997Z,89.67
2018-01-26T23:26:53.860Z,86.90
2018-01-26T23:29:21.709Z,95.30
2018-01-26T23:31:51.102Z,94.57
2018-01-26T23:34:18.991Z,83.50
2018-01-26T23:36:46.832Z,91.20
2018-01-26T23:39:14.697Z,95.47
2018-01-26T23:41:42.553Z,86.30
2018-01-26T23:44:10.421Z,90.60
2018-01-26T23:46:39.433Z,90.40
2018-01-26T23:49:07.276Z,97.40
2018-01-26T23:51:35.100Z,94.30
2018-01-26T23:54:02.956Z,85.47
2018-01-26T23:56:30.776Z,92.80
2018-01-26T23:58:58.612Z,99.00
